createdAt,value
2022-10-25T00:00:25.896Z,12.13
2022-10-25T00:01:25.966Z,12.13
2022-10-25T00:02:25.952Z,12.12
2022-10-25T00:03:25.860Z,12.09
2022-10-25T00:04:25.873Z,12.06
2022-10-25T00:05:25.859Z,12.04
2022-10-25T00:06:25.815Z,12.03
2022-10-25T00:07:25.889Z,12.03
2022-10-25T00:08:25.818Z,12.03
2022-10-25T00:09:25.767Z,12.04
2022-10-25T00:10:25.920Z,12.04
2022-10-25T00:11:25.742Z,12.06
2022-10-25T00:12:25.816Z,12.03
2022-10-25T00:13:25.726Z,12.04
2022-10-25T00:14:25.709Z,12.04
2022-10-25T00:15:25.699Z,12.06
2022-10-25T00:16:25.673Z,12.06
2022-10-25T00:17:25.699Z,12.04
2022-10-25T00:18:25.658Z,12.07
2022-10-25T00:19:25.672Z,12.07
2022-10-25T00:20:25.630Z,12.09
2022-10-25T00:21:25.612Z,12.10
2022-10-25T00:22:25.606Z,12.10
2022-10-25T00:23:25.588Z,12.10
2022-10-25T00:24:25.640Z,12.12
2022-10-25T00:25:25.565Z,12.12
2022-10-25T00:26:25.545Z,12.10
2022-10-25T00:27:25.527Z,12.09
2022-10-25T00:28:25.521Z,12.07
2022-10-25T00:29:25.534Z,12.04
2022-10-25T00:30:25.490Z,12.03
2022-10-25T00:31:25.471Z,11.99
2022-10-25T00:32:25.460Z,11.99
2022-10-25T00:33:25.448Z,11.97
2022-10-25T00:34:25.464Z,11.97
2022-10-25T00:35:25.421Z,11.95
2022-10-25T00:36:25.405Z,11.97
2022-10-25T00:37:25.389Z,11.97
2022-10-25T00:38:25.414Z,11.99
2022-10-25T00:39:25.364Z,11.99
2022-10-25T00:40:25.360Z,11.99
2022-10-25T00:41:25.344Z,12.00
2022-10-25T00:42:25.369Z,12.00
2022-10-25T00:43:25.313Z,12.02
2022-10-25T00:44:25.307Z,12.02
2022-10-25T00:45:25.293Z,12.03
2022-10-25T00:46:25.275Z,12.03
2022-10-25T00:47:25.286Z,12.02
2022-10-25T00:48:25.268Z,12.02
2022-10-25T00:49:25.249Z,12.02
2022-10-25T00:50:25.231Z,12.00
2022-10-25T00:51:25.215Z,11.99
2022-10-25T00:52:25.197Z,11.99
2022-10-25T00:53:25.187Z,11.95
2022-10-25T00:54:25.165Z,11.90
2022-10-25T00:55:25.161Z,11.91
2022-10-25T00:56:25.161Z,11.91
2022-10-25T00:57:25.184Z,11.90
2022-10-25T00:58:25.106Z,11.88
2022-10-25T00:59:25.092Z,11.88
2022-10-25T01:00:25.121Z,11.87
2022-10-25T01:01:25.200Z,11.87
2022-10-25T01:02:25.214Z,11.84
2022-10-25T01:03:25.035Z,11.84
2022-10-25T01:04:25.061Z,11.81
2022-10-25T01:05:25.046Z,11.80
2022-10-25T01:06:24.998Z,11.78
2022-10-25T01:07:24.983Z,11.81
2022-10-25T01:08:24.976Z,11.78
2022-10-25T01:09:24.983Z,11.77
2022-10-25T01:10:24.953Z,11.75
2022-10-25T01:11:24.935Z,11.73
2022-10-25T01:12:24.924Z,11.70
2022-10-25T01:13:24.940Z,11.66
2022-10-25T01:14:24.893Z,11.63
2022-10-25T01:15:24.903Z,11.60
2022-10-25T01:16:24.865Z,11.57
2022-10-25T01:17:24.849Z,11.55
2022-10-25T01:18:24.841Z,11.54
2022-10-25T01:19:24.889Z,11.52
2022-10-25T01:20:24.853Z,11.47
2022-10-25T01:21:24.789Z,11.41
2022-10-25T01:22:24.852Z,11.37
2022-10-25T01:23:24.771Z,11.35
2022-10-25T01:24:24.754Z,11.33
2022-10-25T01:25:24.769Z,11.30
2022-10-25T01:26:24.728Z,11.23
2022-10-25T01:27:24.718Z,11.15
2022-10-25T01:28:24.805Z,11.08
2022-10-25T01:29:24.715Z,11.04
2022-10-25T01:30:24.714Z,11.02
2022-10-25T01:31:24.669Z,11.02
2022-10-25T01:32:24.655Z,10.99
2022-10-25T01:33:24.659Z,10.97
2022-10-25T01:34:24.631Z,10.97
2022-10-25T01:35:24.623Z,10.97
2022-10-25T01:36:24.621Z,10.96
2022-10-25T01:37:24.583Z,10.96
2022-10-25T01:38:24.559Z,10.94
2022-10-25T01:39:24.577Z,10.94
2022-10-25T01:40:24.541Z,10.93
2022-10-25T01:41:24.517Z,10.90
2022-10-25T01:42:24.504Z,10.86
2022-10-25T01:43:24.518Z,10.81
2022-10-25T01:44:24.520Z,10.78
2022-10-25T01:45:24.470Z,10.76
2022-10-25T01:46:24.465Z,10.72
2022-10-25T01:47:24.475Z,10.69
2022-10-25T01:48:24.431Z,10.72
2022-10-25T01:49:24.450Z,10.72
2022-10-25T01:50:24.410Z,10.74
2022-10-25T01:51:24.421Z,10.75
2022-10-25T01:52:24.410Z,10.74
2022-10-25T01:53:24.374Z,10.72
2022-10-25T01:54:24.353Z,10.68
2022-10-25T01:55:24.341Z,10.67
2022-10-25T01:56:24.345Z,10.63
2022-10-25T01:57:24.309Z,10.61
2022-10-25T01:58:24.292Z,10.60
2022-10-25T01:59:24.282Z,10.60
2022-10-25T02:00:24.293Z,10.59
2022-10-25T02:01:24.561Z,10.56
2022-10-25T02:02:24.244Z,10.48
2022-10-25T02:03:24.232Z,10.44
2022-10-25T02:04:24.211Z,10.44
2022-10-25T02:05:24.218Z,10.44
2022-10-25T02:06:24.185Z,10.42
2022-10-25T02:07:24.237Z,10.42
2022-10-25T02:08:24.181Z,10.44
2022-10-25T02:09:24.212Z,10.44
2022-10-25T02:10:24.158Z,10.46
2022-10-25T02:11:24.125Z,10.49
2022-10-25T02:12:24.096Z,10.53
2022-10-25T02:13:24.097Z,10.54
2022-10-25T02:14:24.122Z,10.57
2022-10-25T02:15:24.085Z,10.59
2022-10-25T02:16:24.031Z,10.60
2022-10-25T02:17:24.037Z,10.64
2022-10-25T02:18:24.086Z,10.69
2022-10-25T02:19:24.053Z,10.69
2022-10-25T02:20:23.998Z,10.68
2022-10-25T02:21:24.018Z,10.68
2022-10-25T02:22:23.962Z,10.67
2022-10-25T02:23:23.960Z,10.64
2022-10-25T02:24:23.979Z,10.63
2022-10-25T02:25:23.967Z,10.60
2022-10-25T02:26:23.913Z,10.59
2022-10-25T02:27:23.936Z,10.59
2022-10-25T02:28:23.881Z,10.60
2022-10-25T02:29:23.926Z,10.56
2022-10-25T02:30:23.858Z,10.54
2022-10-25T02:31:23.863Z,10.56
2022-10-25T02:32:23.830Z,10.53
2022-10-25T02:33:23.825Z,10.49
2022-10-25T02:34:23.804Z,10.49
2022-10-25T02:35:23.802Z,10.46
2022-10-25T02:36:23.800Z,10.44
2022-10-25T02:37:23.786Z,10.46
2022-10-25T02:38:23.752Z,10.42
2022-10-25T02:39:26.508Z,10.38
2022-10-25T02:40:23.733Z,10.35
2022-10-25T02:41:23.743Z,10.34
2022-10-25T02:42:23.733Z,10.34
2022-10-25T02:43:23.752Z,10.34
2022-10-25T02:44:23.666Z,10.33
2022-10-25T02:45:23.684Z,10.33
2022-10-25T02:46:23.637Z,10.31
2022-10-25T02:47:23.664Z,10.30
2022-10-25T02:48:23.608Z,10.28
2022-10-25T02:49:23.625Z,10.30
2022-10-25T02:50:23.587Z,10.26
2022-10-25T02:51:23.574Z,10.25
2022-10-25T02:52:23.567Z,10.19
2022-10-25T02:53:23.550Z,10.17
2022-10-25T02:54:23.554Z,10.15
2022-10-25T02:55:23.559Z,10.15
2022-10-25T02:56:23.530Z,10.15
2022-10-25T02:57:23.539Z,10.15
2022-10-25T02:58:23.493Z,10.13
2022-10-25T02:59:23.473Z,10.10
2022-10-25T03:00:23.467Z,10.05
2022-10-25T03:01:23.542Z,10.02
2022-10-25T03:02:23.424Z,10.02
2022-10-25T03:03:23.410Z,10.02
2022-10-25T03:04:23.403Z,9.98
2022-10-25T03:05:23.406Z,9.95
2022-10-25T03:06:23.367Z,9.94
2022-10-25T03:07:23.356Z,9.92
2022-10-25T03:08:23.363Z,9.92
2022-10-25T03:09:23.331Z,9.94
2022-10-25T03:10:23.346Z,9.94
2022-10-25T03:11:23.323Z,9.95
2022-10-25T03:12:23.291Z,9.97
2022-10-25T03:13:23.285Z,9.98
2022-10-25T03:14:23.260Z,9.98
2022-10-25T03:15:23.282Z,9.97
2022-10-25T03:16:23.256Z,9.98
2022-10-25T03:17:23.242Z,9.94
2022-10-25T03:18:23.231Z,9.91
2022-10-25T03:19:23.225Z,9.86
2022-10-25T03:20:23.177Z,9.83
2022-10-25T03:21:23.209Z,9.83
2022-10-25T03:22:23.191Z,9.82
2022-10-25T03:23:23.145Z,9.79
2022-10-25T03:24:23.168Z,9.80
2022-10-25T03:25:23.122Z,9.82
2022-10-25T03:26:23.090Z,9.82
2022-10-25T03:27:23.086Z,9.83
2022-10-25T03:28:23.080Z,9.80
2022-10-25T03:29:23.072Z,9.80
2022-10-25T03:30:23.043Z,9.79
2022-10-25T03:31:23.036Z,9.77
2022-10-25T03:32:23.015Z,9.76
2022-10-25T03:33:23.076Z,9.76
2022-10-25T03:34:23.016Z,9.79
2022-10-25T03:35:22.980Z,9.82
2022-10-25T03:36:22.976Z,9.83
2022-10-25T03:37:22.951Z,9.84
2022-10-25T03:38:22.934Z,9.84
2022-10-25T03:39:22.948Z,9.89
2022-10-25T03:40:22.938Z,9.91
2022-10-25T03:41:22.894Z,9.92
2022-10-25T03:42:22.878Z,9.89
2022-10-25T03:44:22.855Z,9.91
2022-10-25T03:45:22.836Z,9.91
2022-10-25T03:46:22.824Z,9.92
2022-10-25T03:47:22.851Z,9.94
2022-10-25T03:48:22.794Z,9.98
2022-10-25T03:49:22.816Z,9.99
2022-10-25T03:50:22.778Z,10.01
2022-10-25T03:51:22.767Z,10.01
2022-10-25T03:52:22.792Z,10.04
2022-10-25T03:53:22.729Z,10.04
2022-10-25T03:54:24.406Z,10.05
2022-10-25T03:55:22.743Z,10.07
2022-10-25T03:56:22.686Z,10.10
2022-10-25T03:57:22.688Z,10.12
2022-10-25T03:58:22.656Z,10.12
2022-10-25T03:59:22.683Z,10.13
2022-10-25T04:00:22.635Z,10.15
2022-10-25T04:01:22.894Z,10.16
2022-10-25T04:02:22.610Z,10.17
2022-10-25T04:03:22.629Z,10.16
2022-10-25T04:04:22.574Z,10.16
2022-10-25T04:05:22.584Z,10.16
2022-10-25T04:06:22.565Z,10.16
2022-10-25T04:07:22.573Z,10.19
2022-10-25T04:08:22.548Z,10.19
2022-10-25T04:09:22.515Z,10.19
2022-10-25T04:10:23.274Z,10.19
2022-10-25T04:11:22.665Z,10.17
2022-10-25T04:12:22.468Z,10.19
2022-10-25T04:13:22.487Z,10.19
2022-10-25T04:14:22.444Z,10.19
2022-10-25T04:15:22.434Z,10.19
2022-10-25T04:16:22.436Z,10.20
2022-10-25T04:17:22.443Z,10.22
2022-10-25T04:18:22.401Z,10.20
2022-10-25T04:19:22.383Z,10.17
2022-10-25T04:20:22.368Z,10.15
2022-10-25T04:21:22.383Z,10.13
2022-10-25T04:22:22.369Z,10.10
2022-10-25T04:23:22.323Z,10.10
2022-10-25T04:24:22.298Z,10.10
2022-10-25T04:25:22.295Z,10.10
2022-10-25T04:26:22.313Z,10.12
2022-10-25T04:27:22.284Z,10.13
2022-10-25T04:28:22.245Z,10.16
2022-10-25T04:29:22.246Z,10.17
2022-10-25T04:30:22.229Z,10.19
2022-10-25T04:31:22.240Z,10.22
2022-10-25T04:32:22.239Z,10.23
2022-10-25T04:33:22.186Z,10.25
2022-10-25T04:34:22.176Z,10.28
2022-10-25T04:35:22.165Z,10.30
2022-10-25T04:36:22.142Z,10.31
2022-10-25T04:37:22.169Z,10.33
2022-10-25T04:38:22.117Z,10.35
2022-10-25T04:39:22.100Z,10.37
2022-10-25T04:40:24.003Z,10.40
2022-10-25T04:41:22.086Z,10.44
2022-10-25T04:42:22.101Z,10.46
2022-10-25T04:43:22.053Z,10.48
2022-10-25T04:44:22.075Z,10.53
2022-10-25T04:45:22.025Z,10.53
2022-10-25T04:46:22.034Z,10.56
2022-10-25T04:47:21.997Z,10.56
2022-10-25T04:48:22.002Z,10.57
2022-10-25T04:49:22.003Z,10.59
2022-10-25T04:50:21.990Z,10.56
2022-10-25T04:51:21.996Z,10.59
2022-10-25T04:52:21.931Z,10.60
2022-10-25T04:53:21.909Z,10.59
2022-10-25T04:54:21.899Z,10.60
2022-10-25T04:55:21.885Z,10.60
2022-10-25T04:56:21.913Z,10.60
2022-10-25T04:57:21.896Z,10.61
2022-10-25T04:58:21.847Z,10.63
2022-10-25T04:59:21.873Z,10.61
2022-10-25T05:00:21.825Z,10.61
2022-10-25T05:01:21.872Z,10.63
2022-10-25T05:02:21.780Z,10.63
2022-10-25T05:03:21.809Z,10.63
2022-10-25T05:04:21.781Z,10.63
2022-10-25T05:05:21.752Z,10.63
2022-10-25T05:06:21.739Z,10.64
2022-10-25T05:07:21.720Z,10.63
2022-10-25T05:08:21.725Z,10.64
2022-10-25T05:09:21.726Z,10.67
2022-10-25T05:10:21.680Z,10.67
2022-10-25T05:11:21.705Z,10.68
2022-10-25T05:12:21.646Z,10.69
2022-10-25T05:13:21.639Z,10.69
2022-10-25T05:14:21.664Z,10.71
2022-10-25T05:15:21.616Z,10.68
2022-10-25T05:16:21.604Z,10.69
2022-10-25T05:17:21.580Z,10.69
2022-10-25T05:18:21.599Z,10.69
2022-10-25T05:19:21.557Z,10.68
2022-10-25T05:20:21.546Z,10.68
2022-10-25T05:21:21.602Z,10.69
2022-10-25T05:22:21.521Z,10.68
2022-10-25T05:23:21.534Z,10.71
2022-10-25T05:24:21.510Z,10.71
2022-10-25T05:25:21.491Z,10.72
2022-10-25T05:26:21.555Z,10.74
2022-10-25T05:27:21.488Z,10.74
2022-10-25T05:28:21.436Z,10.75
2022-10-25T05:29:21.413Z,10.74
2022-10-25T05:30:21.497Z,10.75
2022-10-25T05:31:21.414Z,10.75
2022-10-25T05:32:21.434Z,10.75
2022-10-25T05:33:21.370Z,10.76
2022-10-25T05:34:21.350Z,10.76
2022-10-25T05:35:21.342Z,10.75
2022-10-25T05:36:21.321Z,10.72
2022-10-25T05:37:21.356Z,10.71
2022-10-25T05:38:21.294Z,10.71
2022-10-25T05:39:21.313Z,10.69
2022-10-25T05:40:21.278Z,10.68
2022-10-25T05:41:21.273Z,10.68
2022-10-25T05:42:21.242Z,10.69
2022-10-25T05:43:21.264Z,10.67
2022-10-25T05:44:21.218Z,10.68
2022-10-25T05:45:21.237Z,10.67
2022-10-25T05:46:21.183Z,10.68
2022-10-25T05:47:21.187Z,10.68
2022-10-25T05:48:21.163Z,10.68
2022-10-25T05:49:21.168Z,10.69
2022-10-25T05:50:21.174Z,10.69
2022-10-25T05:51:33.439Z,10.69
2022-10-25T05:52:21.110Z,10.71
2022-10-25T05:53:21.098Z,10.71
2022-10-25T05:54:21.142Z,10.71
2022-10-25T05:55:21.075Z,10.72
2022-10-25T05:56:21.051Z,10.75
2022-10-25T05:57:21.043Z,10.74
2022-10-25T05:58:21.019Z,10.74
2022-10-25T05:59:21.038Z,10.76
2022-10-25T06:00:21.000Z,10.75
2022-10-25T06:01:21.105Z,10.76
2022-10-25T06:02:21.127Z,10.76
2022-10-25T06:03:20.962Z,10.78
2022-10-25T06:04:20.972Z,10.78
2022-10-25T06:05:20.931Z,10.79
2022-10-25T06:06:20.924Z,10.79
2022-10-25T06:07:20.907Z,10.82
2022-10-25T06:08:20.931Z,10.82
2022-10-25T06:09:20.872Z,10.84
2022-10-25T06:10:20.901Z,10.82
2022-10-25T06:11:20.868Z,10.86
2022-10-25T06:12:20.872Z,10.86
2022-10-25T06:13:20.854Z,10.84
2022-10-25T06:14:20.817Z,10.82
2022-10-25T06:15:20.821Z,10.84
2022-10-25T06:16:20.791Z,10.84
2022-10-25T06:17:20.792Z,10.84
2022-10-25T06:18:20.751Z,10.86
2022-10-25T06:19:20.787Z,10.87
2022-10-25T06:20:20.721Z,10.87
2022-10-25T06:21:20.719Z,10.87
2022-10-25T06:22:20.704Z,10.86
2022-10-25T06:23:20.687Z,10.86
2022-10-25T06:24:20.713Z,10.86
2022-10-25T06:25:20.656Z,10.84
2022-10-25T06:26:20.645Z,10.84
2022-10-25T06:27:20.660Z,10.86
2022-10-25T06:28:20.623Z,10.87
2022-10-25T06:29:20.645Z,10.87
2022-10-25T06:30:20.649Z,10.87
2022-10-25T06:31:20.593Z,10.87
2022-10-25T06:32:20.563Z,10.90
2022-10-25T06:33:23.379Z,10.89
2022-10-25T06:34:20.578Z,10.89
2022-10-25T06:35:20.527Z,10.89
2022-10-25T06:36:20.516Z,10.90
2022-10-25T06:37:20.494Z,10.92
2022-10-25T06:38:20.489Z,10.92
2022-10-25T06:39:20.505Z,10.94
2022-10-25T06:41:20.439Z,10.96
2022-10-25T06:42:20.424Z,10.97
2022-10-25T06:43:20.420Z,10.97
2022-10-25T06:44:20.397Z,10.97
2022-10-25T06:45:20.418Z,10.96
2022-10-25T06:46:20.413Z,10.97
2022-10-25T06:47:20.355Z,11.00
2022-10-25T06:48:20.365Z,11.00
2022-10-25T06:49:20.328Z,11.04
2022-10-25T06:50:20.350Z,11.04
2022-10-25T06:51:20.344Z,11.05
2022-10-25T06:52:20.309Z,11.07
2022-10-25T06:53:20.291Z,11.08
2022-10-25T06:54:20.291Z,11.08
2022-10-25T06:55:20.263Z,11.10
2022-10-25T06:56:20.249Z,11.07
2022-10-25T06:57:20.252Z,11.08
2022-10-25T06:58:20.221Z,11.08
2022-10-25T06:59:20.224Z,11.10
2022-10-25T07:00:20.194Z,11.11
2022-10-25T07:01:20.331Z,11.12
2022-10-25T07:02:20.273Z,11.11
2022-10-25T07:03:20.186Z,11.14
2022-10-25T07:04:20.153Z,11.15
2022-10-25T07:05:20.118Z,11.17
2022-10-25T07:06:20.170Z,11.18
2022-10-25T07:07:20.093Z,11.19
2022-10-25T07:08:20.083Z,11.23
2022-10-25T07:09:20.087Z,11.25
2022-10-25T07:10:20.059Z,11.26
2022-10-25T07:11:20.031Z,11.27
2022-10-25T07:12:20.024Z,11.32
2022-10-25T07:13:20.031Z,11.35
2022-10-25T07:14:20.025Z,11.36
2022-10-25T07:16:19.989Z,11.40
2022-10-25T07:17:19.956Z,11.40
2022-10-25T07:18:19.942Z,11.41
2022-10-25T07:19:19.954Z,11.41
2022-10-25T07:20:19.915Z,11.44
2022-10-25T07:21:19.907Z,11.44
2022-10-25T07:22:19.892Z,11.47
2022-10-25T07:23:19.941Z,11.48
2022-10-25T07:24:19.865Z,11.50
2022-10-25T07:25:19.884Z,11.50
2022-10-25T07:26:19.859Z,11.51
2022-10-25T07:27:19.819Z,11.52
2022-10-25T07:28:19.957Z,11.52
2022-10-25T07:29:19.878Z,11.54
2022-10-25T07:30:19.788Z,11.55
2022-10-25T07:31:19.800Z,11.57
2022-10-25T07:32:19.786Z,11.57
2022-10-25T07:33:19.753Z,11.59
2022-10-25T07:34:19.754Z,11.57
2022-10-25T07:35:19.708Z,11.57
2022-10-25T07:36:19.711Z,11.52
2022-10-25T07:37:19.683Z,11.54
2022-10-25T07:38:20.967Z,11.52
2022-10-25T07:39:19.689Z,11.54
2022-10-25T07:40:19.643Z,11.54
2022-10-25T07:41:19.623Z,11.57
2022-10-25T07:42:19.652Z,11.57
2022-10-25T07:43:19.608Z,11.59
2022-10-25T07:44:24.639Z,11.63
2022-10-25T07:45:22.307Z,11.65
2022-10-25T07:46:19.560Z,11.68
2022-10-25T07:47:19.578Z,11.69
2022-10-25T07:48:19.566Z,11.72
2022-10-25T07:49:19.510Z,11.72
2022-10-25T07:50:19.510Z,11.77
2022-10-25T07:51:19.510Z,11.80
2022-10-25T07:52:19.514Z,11.81
2022-10-25T07:53:19.488Z,11.83
2022-10-25T07:54:19.462Z,11.84
2022-10-25T07:55:19.447Z,11.87
2022-10-25T07:56:23.089Z,11.90
2022-10-25T07:57:19.413Z,11.95
2022-10-25T07:58:19.430Z,11.99
2022-10-25T07:59:19.381Z,12.04
2022-10-25T08:00:19.419Z,12.13
2022-10-25T08:01:19.406Z,12.28
2022-10-25T08:02:20.893Z,12.35
2022-10-25T08:03:19.416Z,12.40
2022-10-25T08:04:19.351Z,12.45
2022-10-25T08:05:19.298Z,12.61
2022-10-25T08:06:19.305Z,12.76
2022-10-25T08:07:19.266Z,12.79
2022-10-25T08:08:19.301Z,12.82
2022-10-25T08:09:36.785Z,12.86
2022-10-25T08:10:19.245Z,12.97
2022-10-25T08:11:19.233Z,12.97
2022-10-25T08:12:22.515Z,13.01
2022-10-25T08:13:19.201Z,13.03
2022-10-25T08:14:19.264Z,13.05
2022-10-25T08:15:19.164Z,13.13
2022-10-25T08:16:19.186Z,13.20
2022-10-25T08:17:19.161Z,13.33
2022-10-25T08:18:19.126Z,13.41
2022-10-25T08:19:19.120Z,13.42
2022-10-25T08:20:19.225Z,13.47
2022-10-25T08:21:19.100Z,13.50
2022-10-25T08:22:19.108Z,13.53
2022-10-25T08:23:19.065Z,13.53
2022-10-25T08:25:20.699Z,13.56
2022-10-25T08:26:19.049Z,13.54
2022-10-25T08:27:19.002Z,13.53
2022-10-25T08:28:19.004Z,13.52
2022-10-25T08:29:18.985Z,13.54
2022-10-25T08:30:18.964Z,13.53
2022-10-25T08:31:18.993Z,13.50
2022-10-25T08:32:18.942Z,13.47
2022-10-25T08:33:18.920Z,13.47
2022-10-25T08:34:18.938Z,13.47
2022-10-25T08:35:18.919Z,13.46
2022-10-25T08:36:18.890Z,13.47
2022-10-25T08:37:18.879Z,13.44
2022-10-25T08:38:18.851Z,13.42
2022-10-25T08:39:18.868Z,13.42
2022-10-25T08:40:18.823Z,13.44
2022-10-25T08:41:18.814Z,13.44
2022-10-25T08:42:18.807Z,13.46
2022-10-25T08:43:18.787Z,13.46
2022-10-25T08:44:18.795Z,13.46
2022-10-25T08:45:18.762Z,13.44
2022-10-25T08:46:18.747Z,13.44
2022-10-25T08:47:18.737Z,13.42
2022-10-25T08:48:18.729Z,13.42
2022-10-25T08:49:18.746Z,13.42
2022-10-25T08:50:18.697Z,13.41
2022-10-25T08:51:18.678Z,13.41
2022-10-25T08:52:18.668Z,13.41
2022-10-25T08:53:18.647Z,13.41
2022-10-25T08:54:18.664Z,13.39
2022-10-25T08:55:18.617Z,13.41
2022-10-25T08:56:18.619Z,13.41
2022-10-25T08:57:18.617Z,13.41
2022-10-25T08:58:18.588Z,13.41
2022-10-25T08:59:18.574Z,13.42
2022-10-25T09:00:18.557Z,13.41
2022-10-25T09:01:18.713Z,13.42
2022-10-25T09:02:18.672Z,13.42
2022-10-25T09:03:18.507Z,13.42
2022-10-25T09:04:18.509Z,13.44
2022-10-25T09:05:18.509Z,13.46
2022-10-25T09:06:18.474Z,13.46
2022-10-25T09:07:18.455Z,13.50
2022-10-25T09:08:18.451Z,13.50
2022-10-25T09:09:18.438Z,13.52
2022-10-25T09:10:18.492Z,13.54
2022-10-25T09:11:18.409Z,13.54
2022-10-25T09:12:18.388Z,13.56
2022-10-25T09:13:18.374Z,13.59
2022-10-25T09:14:18.400Z,13.63
2022-10-25T09:15:18.340Z,13.65
2022-10-25T09:16:18.339Z,13.68
2022-10-25T09:17:18.383Z,13.72
2022-10-25T09:18:18.350Z,13.74
2022-10-25T09:19:18.288Z,13.78
2022-10-25T09:20:18.391Z,13.78
2022-10-25T09:21:22.393Z,13.81
2022-10-25T09:22:18.276Z,13.81
2022-10-25T09:23:18.286Z,13.75
2022-10-25T09:24:18.228Z,13.78
2022-10-25T09:25:18.212Z,13.78
2022-10-25T09:26:18.204Z,13.78
2022-10-25T09:27:18.211Z,13.79
2022-10-25T09:28:18.178Z,13.79
2022-10-25T09:29:18.157Z,13.81
2022-10-25T09:30:18.179Z,13.85
2022-10-25T09:31:18.133Z,13.87
2022-10-25T09:32:18.122Z,13.89
2022-10-25T09:33:18.110Z,13.92
2022-10-25T09:34:18.089Z,13.95
2022-10-25T09:35:18.104Z,13.99
2022-10-25T09:36:18.099Z,14.10
2022-10-25T09:37:18.046Z,14.23
2022-10-25T09:38:18.044Z,14.30
2022-10-25T09:39:18.029Z,14.40
2022-10-25T09:40:18.121Z,14.58
2022-10-25T09:41:18.029Z,14.84
2022-10-25T09:42:17.988Z,15.15
2022-10-25T09:43:17.960Z,15.42
2022-10-25T09:44:17.959Z,15.64
2022-10-25T09:45:17.971Z,15.72
2022-10-25T09:46:17.923Z,15.75
2022-10-25T09:47:17.956Z,15.75
2022-10-25T09:48:17.911Z,15.75
2022-10-25T09:49:17.875Z,15.72
2022-10-25T09:50:17.905Z,15.68
2022-10-25T09:51:17.864Z,15.72
2022-10-25T09:52:17.837Z,15.67
2022-10-25T09:53:20.353Z,15.70
2022-10-25T09:54:17.814Z,15.79
2022-10-25T09:55:17.794Z,15.97
2022-10-25T09:56:17.805Z,16.12
2022-10-25T09:57:17.773Z,16.29
2022-10-25T09:58:17.805Z,16.41
2022-10-25T09:59:17.737Z,16.41
2022-10-25T10:00:17.813Z,16.51
2022-10-25T10:01:17.923Z,16.64
2022-10-25T10:02:17.823Z,16.60
2022-10-25T10:03:17.699Z,16.75
2022-10-25T10:04:17.737Z,16.81
2022-10-25T10:05:17.692Z,16.91
2022-10-25T10:06:17.658Z,16.97
2022-10-25T10:07:17.625Z,17.14
2022-10-25T10:08:17.665Z,17.30
2022-10-25T10:09:17.675Z,17.45
2022-10-25T10:10:17.625Z,17.60
2022-10-25T10:11:17.578Z,17.72
2022-10-25T10:12:17.570Z,17.78
2022-10-25T10:13:17.556Z,17.86
2022-10-25T10:14:17.612Z,17.97
2022-10-25T10:15:17.530Z,18.04
2022-10-25T10:16:17.539Z,18.07
2022-10-25T10:17:17.503Z,18.20
2022-10-25T10:18:17.487Z,18.40
2022-10-25T10:19:17.495Z,18.56
2022-10-25T10:20:17.461Z,18.71
2022-10-25T10:21:17.447Z,18.84
2022-10-25T10:22:17.470Z,19.00
2022-10-25T10:23:17.419Z,19.21
2022-10-25T10:24:17.492Z,19.31
2022-10-25T10:25:17.396Z,19.39
2022-10-25T10:26:17.378Z,19.44
2022-10-25T10:27:17.420Z,19.54
2022-10-25T10:28:17.346Z,19.62
2022-10-25T10:29:17.858Z,19.64
2022-10-25T10:30:17.324Z,19.67
2022-10-25T10:31:17.317Z,19.76
2022-10-25T10:32:17.289Z,19.88
2022-10-25T10:33:17.324Z,19.92
2022-10-25T10:34:17.273Z,20.00
2022-10-25T10:35:17.258Z,20.03
2022-10-25T10:36:17.245Z,20.04
2022-10-25T10:37:17.273Z,20.10
2022-10-25T10:38:17.215Z,20.18
2022-10-25T10:39:17.205Z,20.25
2022-10-25T10:40:17.184Z,20.29
2022-10-25T10:41:17.189Z,20.41
2022-10-25T10:42:17.327Z,20.48
2022-10-25T10:43:17.148Z,20.39
2022-10-25T10:44:17.140Z,20.56
2022-10-25T10:45:17.154Z,20.65
2022-10-25T10:46:17.106Z,20.80
2022-10-25T10:47:17.096Z,20.95
2022-10-25T10:48:17.104Z,21.03
2022-10-25T10:49:17.069Z,21.12
2022-10-25T10:50:17.083Z,21.22
2022-10-25T10:51:32.051Z,21.32
2022-10-25T10:52:17.110Z,21.46
2022-10-25T10:53:17.045Z,21.27
2022-10-25T10:54:17.037Z,21.40
2022-10-25T10:55:16.989Z,21.51
2022-10-25T10:56:16.995Z,21.61
2022-10-25T10:57:16.971Z,21.73
2022-10-25T10:58:16.944Z,21.79
2022-10-25T10:59:16.940Z,21.88
2022-10-25T11:00:16.961Z,21.98
2022-10-25T11:01:17.133Z,22.06
2022-10-25T11:02:17.145Z,22.00
2022-10-25T11:03:16.900Z,22.08
2022-10-25T11:04:16.862Z,22.18
2022-10-25T11:05:16.853Z,22.26
2022-10-25T11:06:16.866Z,22.29
2022-10-25T11:07:16.855Z,22.41
2022-10-25T11:08:16.824Z,22.57
2022-10-25T11:09:16.872Z,22.66
2022-10-25T11:10:16.821Z,22.62
2022-10-25T11:11:16.775Z,22.45
2022-10-25T11:12:16.756Z,22.45
2022-10-25T11:13:16.763Z,22.48
2022-10-25T11:14:16.735Z,22.57
2022-10-25T11:15:16.727Z,22.78
2022-10-25T11:16:16.711Z,22.94
2022-10-25T11:17:16.685Z,22.90
2022-10-25T11:18:16.705Z,22.94
2022-10-25T11:19:16.673Z,23.06
2022-10-25T11:20:16.657Z,23.12
2022-10-25T11:21:16.638Z,23.24
2022-10-25T11:22:16.619Z,23.27
2022-10-25T11:23:16.636Z,23.36
2022-10-25T11:24:16.599Z,23.37
2022-10-25T11:25:16.625Z,23.15
2022-10-25T11:26:16.575Z,23.10
2022-10-25T11:27:16.584Z,23.21
2022-10-25T11:28:16.548Z,23.02
2022-10-25T11:29:16.624Z,23.08
2022-10-25T11:30:16.547Z,23.05
2022-10-25T11:31:16.511Z,22.93
2022-10-25T11:32:16.485Z,22.84
2022-10-25T11:33:16.479Z,22.62
2022-10-25T11:34:16.519Z,22.59
2022-10-25T11:35:16.549Z,22.78
2022-10-25T11:36:16.449Z,22.94
2022-10-25T11:37:16.431Z,23.17
2022-10-25T11:38:16.419Z,23.34
2022-10-25T11:39:16.516Z,23.09
2022-10-25T11:40:16.390Z,22.85
2022-10-25T11:41:16.375Z,22.57
2022-10-25T11:42:16.392Z,22.29
2022-10-25T11:43:16.343Z,21.96
2022-10-25T11:44:16.376Z,21.76
2022-10-25T11:45:16.323Z,21.55
2022-10-25T11:46:16.306Z,21.40
2022-10-25T11:47:16.307Z,21.32
2022-10-25T11:48:16.309Z,21.30
2022-10-25T11:49:16.280Z,21.21
2022-10-25T11:50:16.260Z,21.11
2022-10-25T11:51:16.310Z,21.05
2022-10-25T11:52:16.251Z,21.30
2022-10-25T11:53:16.223Z,21.66
2022-10-25T11:54:16.193Z,21.89
2022-10-25T11:55:16.251Z,21.96
2022-10-25T11:56:16.230Z,21.91
2022-10-25T11:57:16.167Z,21.82
2022-10-25T11:58:16.146Z,21.76
2022-10-25T11:59:16.144Z,21.79
2022-10-25T12:00:16.351Z,21.88
2022-10-25T12:01:16.245Z,21.77
2022-10-25T12:02:16.195Z,21.45
2022-10-25T12:03:16.189Z,21.29
2022-10-25T12:04:16.070Z,21.43
2022-10-25T12:05:16.077Z,21.66
2022-10-25T12:06:16.038Z,21.73
2022-10-25T12:07:16.044Z,21.96
2022-10-25T12:08:16.033Z,22.25
2022-10-25T12:09:16.024Z,22.45
2022-10-25T12:10:15.983Z,22.65
2022-10-25T12:11:18.749Z,22.84
2022-10-25T12:12:15.957Z,22.99
2022-10-25T12:13:15.939Z,23.05
2022-10-25T12:14:15.933Z,23.15
2022-10-25T12:15:15.911Z,23.31
2022-10-25T12:16:15.942Z,23.50
2022-10-25T12:17:15.934Z,23.69
2022-10-25T12:18:15.902Z,23.88
2022-10-25T12:19:15.899Z,24.08
2022-10-25T12:20:15.876Z,24.26
2022-10-25T12:21:15.833Z,24.32
2022-10-25T12:22:15.838Z,24.33
2022-10-25T12:23:15.823Z,24.26
2022-10-25T12:24:15.810Z,24.26
2022-10-25T12:25:15.808Z,24.28
2022-10-25T12:26:15.778Z,24.39
2022-10-25T12:27:15.788Z,24.54
2022-10-25T12:28:15.752Z,24.63
2022-10-25T12:29:15.735Z,24.73
2022-10-25T12:30:15.791Z,24.85
2022-10-25T12:31:15.711Z,24.95
2022-10-25T12:32:15.719Z,25.06
2022-10-25T12:33:15.684Z,25.04
2022-10-25T12:34:15.666Z,25.03
2022-10-25T12:35:15.673Z,24.89
2022-10-25T12:36:15.644Z,24.66
2022-10-25T12:37:15.652Z,24.45
2022-10-25T12:38:15.620Z,24.16
2022-10-25T12:39:15.610Z,23.95
2022-10-25T12:40:15.650Z,23.71
2022-10-25T12:41:15.579Z,23.40
2022-10-25T12:42:15.704Z,23.02
2022-10-25T12:43:15.583Z,22.81
2022-10-25T12:44:15.535Z,22.51
2022-10-25T12:45:15.551Z,22.30
2022-10-25T12:46:15.503Z,22.00
2022-10-25T12:47:15.543Z,21.61
2022-10-25T12:48:15.480Z,21.25
2022-10-25T12:49:15.551Z,21.02
2022-10-25T12:50:15.459Z,20.97
2022-10-25T12:51:18.101Z,20.88
2022-10-25T12:52:15.440Z,20.74
2022-10-25T12:53:15.416Z,20.60
2022-10-25T12:54:15.406Z,20.70
2022-10-25T12:55:15.399Z,20.65
2022-10-25T12:56:15.369Z,20.75
2022-10-25T12:57:15.397Z,20.60
2022-10-25T12:58:15.343Z,20.36